Time;durP1;ratioP1;P1;durP2;ratioP2;P2;SDS_P1;SDS_P2;PMS_P1;PMS_P2;Temp;Humidity;BMP_temperature;BMP_pressure;BME280_temperature;BME280_humidity;BME280_pressure;Samples;Min_cycle;Max_cycle;Signal;HPM_P1;HPM_P2
2023/06/05 00:02:09;;;;;;;4.17;3.10;;;14.20;99.90;;;;;;5087768;28;20577;-58
2023/06/05 00:04:36;;;;;;;5.40;3.03;;;14.10;99.90;;;;;;5084165;28;20200;-58
2023/06/05 00:07:03;;;;;;;3.67;3.00;;;13.90;99.90;;;;;;5088244;28;20287;-59
2023/06/05 00:09:30;;;;;;;3.60;2.27;;;14.10;99.90;;;;;;5077363;28;20207;-57
2023/06/05 00:11:57;;;;;;;3.47;3.00;;;14.10;99.90;;;;;;5075351;28;20205;-58
2023/06/05 00:14:23;;;;;;;3.87;2.40;;;13.90;99.90;;;;;;5082776;28;20254;-58
2023/06/05 00:16:51;;;;;;;4.73;3.00;;;14.10;99.90;;;;;;5085494;28;20232;-57
2023/06/05 00:19:18;;;;;;;4.00;2.83;;;14.10;99.90;;;;;;5083810;28;20281;-59
2023/06/05 00:21:45;;;;;;;3.93;2.97;;;14.10;99.90;;;;;;5088012;28;20200;-57
2023/06/05 00:24:12;;;;;;;5.63;2.80;;;14.10;99.90;;;;;;5086368;28;20316;-57
2023/06/05 00:26:39;;;;;;;5.23;3.63;;;14.00;99.90;;;;;;5087113;28;20230;-57
2023/06/05 00:29:06;;;;;;;7.23;2.90;;;13.90;99.90;;;;;;5088330;28;20200;-57
2023/06/05 00:31:33;;;;;;;4.17;2.80;;;14.00;99.90;;;;;;5087258;28;20232;-57
2023/06/05 00:34:00;;;;;;;6.07;2.97;;;13.90;99.90;;;;;;5084143;28;20330;-57
2023/06/05 00:36:27;;;;;;;7.20;3.53;;;13.80;99.90;;;;;;5086012;28;20301;-57
2023/06/05 00:38:54;;;;;;;5.33;3.20;;;13.70;99.90;;;;;;5076441;28;20438;-57
2023/06/05 00:41:22;;;;;;;4.33;2.90;;;13.80;99.90;;;;;;5087604;28;20669;-57
2023/06/05 00:43:49;;;;;;;5.60;2.80;;;13.90;99.90;;;;;;5085072;28;20348;-57
2023/06/05 00:46:16;;;;;;;5.20;3.17;;;13.80;99.90;;;;;;5062775;28;20202;-57
2023/06/05 00:48:46;;;;;;;4.37;3.70;;;13.80;99.90;;;;;;5086095;28;20195;-57
2023/06/05 00:51:15;;;;;;;4.10;2.93;;;13.90;99.90;;;;;;5088451;28;20201;-57
2023/06/05 00:53:45;;;;;;;6.00;3.13;;;13.90;99.90;;;;;;5083295;28;20201;-57
2023/06/05 00:56:12;;;;;;;7.80;3.27;;;13.50;99.90;;;;;;5084906;28;20202;-57
2023/06/05 00:58:39;;;;;;;7.17;2.80;;;13.50;99.90;;;;;;5087343;28;20615;-58
2023/06/05 01:01:10;;;;;;;4.43;3.13;;;13.50;99.90;;;;;;5084250;28;20297;-58
2023/06/05 01:03:39;;;;;;;4.17;3.33;;;13.50;99.90;;;;;;5084232;28;20712;-58
2023/06/05 01:06:07;;;;;;;8.03;3.57;;;13.60;99.90;;;;;;5085647;28;20539;-57
2023/06/05 01:08:39;;;;;;;4.13;3.73;;;13.60;99.90;;;;;;5069447;28;20208;-57
2023/06/05 01:11:26;;;;;;;5.47;3.27;;;13.70;99.90;;;;;;5079166;28;20202;-64
2023/06/05 01:14:16;;;;;;;5.33;3.27;;;13.80;99.90;;;;;;5059650;28;20317;-62
2023/06/05 01:16:47;;;;;;;6.07;3.30;;;13.70;99.90;;;;;;5083742;28;20628;-58
2023/06/05 01:19:14;;;;;;;4.17;3.47;;;13.60;99.90;;;;;;5080795;28;20627;-58
2023/06/05 01:21:41;;;;;;;7.37;3.67;;;13.70;99.90;;;;;;5081652;28;20197;-57
2023/06/05 01:24:08;;;;;;;4.47;3.30;;;13.30;99.90;;;;;;5082339;28;20272;-57
2023/06/05 01:26:54;;;;;;;6.20;3.90;;;13.20;99.90;;;;;;5081273;28;20199;-57
2023/06/05 01:29:30;;;;;;;6.20;3.37;;;13.20;99.90;;;;;;5080325;28;20209;-57
2023/06/05 01:32:03;;;;;;;6.33;3.53;;;13.20;99.90;;;;;;5079390;28;20207;-57
2023/06/05 01:34:30;;;;;;;4.10;3.40;;;13.20;99.90;;;;;;5080404;28;20304;-58
2023/06/05 01:36:57;;;;;;;4.60;3.77;;;13.10;99.90;;;;;;5075996;28;20251;-58
2023/06/05 01:39:25;;;;;;;5.73;3.27;;;13.10;99.90;;;;;;5082831;28;20269;-57
2023/06/05 01:41:55;;;;;;;9.63;3.80;;;13.20;99.90;;;;;;5083123;28;20707;-57
2023/06/05 01:44:22;;;;;;;5.47;4.00;;;13.30;99.90;;;;;;5086346;28;20758;-57
2023/06/05 01:46:49;;;;;;;4.53;3.70;;;13.10;99.90;;;;;;5083946;28;20199;-57
2023/06/05 01:49:16;;;;;;;5.47;3.80;;;13.00;99.90;;;;;;5087633;28;20299;-57
2023/06/05 01:51:43;;;;;;;4.23;3.83;;;13.10;99.90;;;;;;5069287;28;20710;-57
2023/06/05 01:54:10;;;;;;;7.53;3.40;;;13.00;99.90;;;;;;5086119;28;20206;-57
2023/06/05 01:56:37;;;;;;;5.60;3.73;;;12.90;99.90;;;;;;5083668;28;20218;-57
2023/06/05 01:59:06;;;;;;;6.17;3.90;;;13.00;99.90;;;;;;5084615;28;20213;-57
2023/06/05 02:01:34;;;;;;;5.47;3.90;;;13.10;99.90;;;;;;5085012;28;20555;-57
2023/06/05 02:04:05;;;;;;;5.23;3.77;;;12.80;99.90;;;;;;5086506;28;20298;-57
2023/06/05 02:06:41;;;;;;;6.53;4.63;;;12.90;99.90;;;;;;5085976;28;20210;-57
2023/06/05 02:09:10;;;;;;;5.00;3.77;;;12.80;99.90;;;;;;5088024;28;20212;-57
2023/06/05 02:11:37;;;;;;;5.37;3.77;;;12.70;99.90;;;;;;5085424;28;20204;-57
2023/06/05 02:14:15;;;;;;;4.87;3.53;;;12.80;99.90;;;;;;5081541;28;20210;-57
2023/06/05 02:16:43;;;;;;;5.80;3.77;;;12.80;99.90;;;;;;5082874;28;20340;-57
2023/06/05 02:19:10;;;;;;;4.93;4.10;;;12.70;99.90;;;;;;5087855;28;20988;-57
2023/06/05 02:21:37;;;;;;;5.27;3.80;;;12.70;99.90;;;;;;5066684;28;20211;-58
2023/06/05 02:24:05;;;;;;;8.77;4.60;;;12.70;99.90;;;;;;5083114;28;20243;-58
2023/06/05 02:26:32;;;;;;;5.33;3.93;;;12.70;99.90;;;;;;5084863;28;20300;-58
2023/06/05 02:28:59;;;;;;;7.67;3.90;;;12.70;99.90;;;;;;5084902;28;20600;-57
2023/06/05 02:31:28;;;;;;;6.23;4.17;;;12.60;99.90;;;;;;5082626;28;20222;-58
2023/06/05 02:33:56;;;;;;;6.73;4.70;;;12.50;99.90;;;;;;5085131;28;20228;-58
2023/06/05 02:36:24;;;;;;;5.00;4.13;;;12.50;99.90;;;;;;5087085;28;20216;-57
2023/06/05 02:38:52;;;;;;;6.90;4.43;;;12.60;99.90;;;;;;5083157;28;20210;-58
2023/06/05 02:41:21;;;;;;;7.13;4.57;;;12.70;99.90;;;;;;5084501;28;20200;-57
2023/06/05 02:43:48;;;;;;;6.80;4.00;;;12.60;99.90;;;;;;5063525;28;20311;-57
2023/06/05 02:46:15;;;;;;;5.03;4.23;;;12.70;99.90;;;;;;5082082;28;20215;-57
2023/06/05 02:48:42;;;;;;;6.07;4.73;;;12.60;99.90;;;;;;5085234;28;20411;-57
2023/06/05 02:51:10;;;;;;;6.10;4.80;;;12.60;99.90;;;;;;5083660;28;20647;-57
2023/06/05 02:53:38;;;;;;;5.60;4.37;;;12.50;99.90;;;;;;5069882;28;20309;-58
2023/06/05 02:56:05;;;;;;;7.10;4.77;;;12.60;99.90;;;;;;5084843;28;20246;-57
2023/06/05 02:58:33;;;;;;;9.07;4.73;;;12.60;99.90;;;;;;5061956;28;20208;-57
2023/06/05 03:01:01;;;;;;;8.13;5.30;;;12.50;99.90;;;;;;5081588;28;20219;-57
2023/06/05 03:03:32;;;;;;;5.83;4.53;;;12.30;99.90;;;;;;5077902;28;20213;-57
2023/06/05 03:06:06;;;;;;;9.33;5.43;;;12.40;99.90;;;;;;5079084;28;20206;-57
2023/06/05 03:08:35;;;;;;;7.47;5.10;;;12.40;99.90;;;;;;5078925;28;20221;-57
2023/06/05 03:11:05;;;;;;;11.27;5.37;;;12.50;99.90;;;;;;5082498;28;20204;-57
2023/06/05 03:13:32;;;;;;;8.93;5.33;;;12.30;99.90;;;;;;5076395;28;20202;-57
2023/06/05 03:16:03;;;;;;;6.50;4.60;;;12.20;99.90;;;;;;5059652;28;20210;-58
2023/06/05 03:18:30;;;;;;;8.53;5.13;;;12.00;99.90;;;;;;5084326;28;20199;-58
2023/06/05 03:20:57;;;;;;;6.70;5.17;;;12.00;99.90;;;;;;5087239;28;20718;-60
2023/06/05 03:23:29;;;;;;;6.87;5.43;;;12.00;99.90;;;;;;5084186;28;20218;-57
2023/06/05 03:25:56;;;;;;;7.00;5.07;;;12.20;99.90;;;;;;5065338;28;20608;-59
2023/06/05 03:28:23;;;;;;;7.40;5.73;;;12.20;99.90;;;;;;5066466;28;20201;-57
2023/06/05 03:30:50;;;;;;;8.60;5.17;;;12.20;99.90;;;;;;5081520;28;20231;-58
2023/06/05 03:33:17;;;;;;;7.23;4.77;;;12.30;99.90;;;;;;5077777;28;20230;-57
2023/06/05 03:35:48;;;;;;;7.40;5.40;;;12.20;99.90;;;;;;5061192;28;20231;-58
2023/06/05 03:38:16;;;;;;;8.80;5.40;;;12.20;99.90;;;;;;5038755;28;20576;-57
2023/06/05 03:40:43;;;;;;;6.43;5.07;;;12.10;99.90;;;;;;5043350;28;20235;-57
2023/06/05 03:43:10;;;;;;;7.60;5.33;;;12.00;99.90;;;;;;5035270;28;20216;-57
2023/06/05 03:45:41;;;;;;;6.47;5.20;;;11.90;99.90;;;;;;5036339;28;21360;-60
2023/06/05 03:48:11;;;;;;;5.40;4.80;;;11.90;99.90;;;;;;5039538;28;20267;-57
2023/06/05 03:50:38;;;;;;;9.30;5.57;;;11.90;99.90;;;;;;5040464;28;20207;-57
2023/06/05 03:53:05;;;;;;;8.20;5.33;;;11.90;99.90;;;;;;5035260;28;20205;-57
2023/06/05 03:55:45;;;;;;;8.20;5.60;;;11.80;99.90;;;;;;5040061;28;20211;-60
2023/06/05 03:58:13;;;;;;;7.13;5.67;;;11.90;99.90;;;;;;5036701;28;20216;-57
2023/06/05 04:00:46;;;;;;;9.70;5.03;;;11.80;99.90;;;;;;5039211;28;20213;-58
2023/06/05 04:03:13;;;;;;;8.57;5.63;;;11.80;99.90;;;;;;5036916;28;20246;-57
2023/06/05 04:05:40;;;;;;;8.27;6.13;;;12.00;99.90;;;;;;5029888;28;20205;-62
2023/06/05 04:08:11;;;;;;;7.40;5.40;;;12.00;99.90;;;;;;5038442;28;20196;-60
2023/06/05 04:10:38;;;;;;;7.97;5.83;;;12.10;99.90;;;;;;5040363;28;20200;-58
2023/06/05 04:13:05;;;;;;;8.23;5.20;;;11.90;99.90;;;;;;5042810;28;20219;-57
2023/06/05 04:15:33;;;;;;;7.70;5.13;;;12.00;99.90;;;;;;5024520;28;20211;-57
2023/06/05 04:18:00;;;;;;;10.07;5.50;;;11.90;99.90;;;;;;5042358;28;20270;-57
2023/06/05 04:20:27;;;;;;;8.73;5.60;;;11.90;99.90;;;;;;5039927;28;20207;-57
2023/06/05 04:22:54;;;;;;;8.57;5.67;;;11.90;99.90;;;;;;5040936;28;20638;-57
2023/06/05 04:25:21;;;;;;;9.83;5.87;;;12.00;99.90;;;;;;5042286;28;20656;-57
2023/06/05 04:27:50;;;;;;;8.90;5.20;;;11.80;99.90;;;;;;5042610;28;20690;-57
2023/06/05 04:30:17;;;;;;;8.27;6.27;;;11.80;99.90;;;;;;5040813;28;20611;-57
2023/06/05 04:32:54;;;;;;;10.33;6.47;;;11.90;99.90;;;;;;5040801;28;20221;-57
2023/06/05 04:35:22;;;;;;;7.40;5.37;;;12.00;99.90;;;;;;5058841;28;20238;-58
2023/06/05 04:37:50;;;;;;;9.20;6.40;;;12.00;99.90;;;;;;5078654;28;20207;-57
2023/06/05 04:40:19;;;;;;;9.27;6.47;;;12.00;99.90;;;;;;5083447;28;20204;-57
2023/06/05 04:42:46;;;;;;;8.07;5.87;;;11.90;99.90;;;;;;5078357;28;22311;-57
2023/06/05 04:45:13;;;;;;;7.97;5.87;;;11.70;99.90;;;;;;5081321;28;20246;-57
2023/06/05 04:47:40;;;;;;;9.80;6.47;;;11.90;99.90;;;;;;5081056;28;20249;-57
2023/06/05 04:50:08;;;;;;;8.77;5.90;;;12.10;99.90;;;;;;5073859;28;20200;-57
2023/06/05 04:52:36;;;;;;;6.90;5.33;;;12.00;99.90;;;;;;5064431;28;21159;-57
2023/06/05 04:55:03;;;;;;;9.17;6.30;;;12.10;99.90;;;;;;5076020;28;20204;-57
2023/06/05 04:57:31;;;;;;;9.03;5.73;;;12.00;99.90;;;;;;5076639;28;20325;-57
2023/06/05 04:59:58;;;;;;;8.13;6.20;;;11.90;99.90;;;;;;4693128;28;9999999;-60
2023/06/05 05:02:26;;;;;;;8.30;6.47;;;11.90;99.90;;;;;;5068092;28;20204;-62
2023/06/05 05:04:53;;;;;;;9.63;6.40;;;12.00;99.90;;;;;;5072666;28;20215;-58
2023/06/05 05:07:22;;;;;;;10.63;6.47;;;11.90;99.90;;;;;;5072720;28;20510;-57
2023/06/05 05:09:49;;;;;;;9.27;6.33;;;12.00;99.90;;;;;;5069575;28;20323;-57
2023/06/05 05:12:16;;;;;;;10.07;6.13;;;12.20;99.90;;;;;;5087902;28;20210;-58
2023/06/05 05:14:44;;;;;;;7.33;5.73;;;12.20;99.90;;;;;;5086864;28;20672;-61
2023/06/05 05:17:14;;;;;;;9.87;6.83;;;12.30;99.90;;;;;;5064073;28;20723;-58
2023/06/05 05:19:41;;;;;;;10.17;6.57;;;12.20;99.90;;;;;;5061329;28;20214;-61
2023/06/05 05:22:08;;;;;;;9.10;6.53;;;12.20;99.90;;;;;;5079487;28;20296;-57
2023/06/05 05:24:35;;;;;;;9.87;6.70;;;12.20;99.90;;;;;;5080610;28;20648;-60
2023/06/05 05:27:02;;;;;;;9.37;5.73;;;12.30;99.90;;;;;;5078619;28;20199;-58
2023/06/05 05:29:29;;;;;;;9.90;6.47;;;12.20;99.90;;;;;;5066684;28;20202;-57
2023/06/05 05:31:56;;;;;;;9.73;6.70;;;12.20;99.90;;;;;;5067069;28;21613;-57
2023/06/05 05:34:23;;;;;;;8.63;5.90;;;12.30;99.90;;;;;;5076217;28;20227;-57
2023/06/05 05:36:50;;;;;;;10.17;6.20;;;12.30;99.90;;;;;;5080720;28;20277;-58
2023/06/05 05:39:18;;;;;;;10.87;6.57;;;12.30;99.90;;;;;;5081177;28;20199;-58
2023/06/05 05:41:45;;;;;;;10.17;6.50;;;12.40;99.90;;;;;;5076889;28;20579;-58
2023/06/05 05:44:12;;;;;;;9.77;6.63;;;12.50;99.90;;;;;;5036884;28;20226;-59
2023/06/05 05:46:39;;;;;;;8.27;6.70;;;12.60;99.90;;;;;;5072456;28;20256;-58
2023/06/05 05:49:06;;;;;;;12.67;6.57;;;12.50;99.90;;;;;;5075857;28;20563;-60
2023/06/05 05:51:33;;;;;;;7.47;5.87;;;12.40;99.90;;;;;;5076410;28;20222;-58
2023/06/05 05:54:00;;;;;;;12.63;7.00;;;12.40;99.90;;;;;;5061669;28;20251;-58
2023/06/05 05:56:28;;;;;;;9.97;6.83;;;12.50;99.90;;;;;;5067243;28;20233;-63
2023/06/05 05:58:55;;;;;;;7.87;6.27;;;12.60;99.90;;;;;;5050026;28;20613;-58
2023/06/05 06:01:22;;;;;;;9.53;6.13;;;12.60;99.90;;;;;;5067788;28;20208;-58
2023/06/05 06:03:49;;;;;;;9.70;6.67;;;12.70;99.90;;;;;;5073009;28;20690;-58
2023/06/05 06:06:16;;;;;;;8.07;6.03;;;12.70;99.90;;;;;;5057074;28;20649;-58
2023/06/05 06:08:43;;;;;;;10.60;6.77;;;12.80;99.90;;;;;;5056812;28;20643;-58
2023/06/05 06:11:10;;;;;;;8.50;6.23;;;12.80;99.90;;;;;;5080634;28;20308;-58
2023/06/05 06:13:37;;;;;;;10.83;6.87;;;12.90;99.90;;;;;;5079862;28;20205;-58
2023/06/05 06:16:04;;;;;;;11.20;6.73;;;13.10;99.90;;;;;;5074001;28;20251;-59
2023/06/05 06:18:31;;;;;;;9.47;5.83;;;13.20;99.90;;;;;;5071772;28;21041;-58
2023/06/05 06:20:58;;;;;;;9.67;6.67;;;13.30;99.90;;;;;;5082257;28;20656;-59
2023/06/05 06:23:25;;;;;;;8.63;6.17;;;13.50;99.90;;;;;;5077810;28;20590;-59
2023/06/05 06:25:52;;;;;;;9.87;6.93;;;13.50;99.90;;;;;;5077545;28;20200;-59
2023/06/05 06:28:19;;;;;;;8.73;6.70;;;13.50;99.90;;;;;;5077751;28;20208;-59
2023/06/05 06:30:46;;;;;;;12.27;6.33;;;13.50;99.90;;;;;;5076461;28;20844;-59
2023/06/05 06:33:13;;;;;;;9.10;6.77;;;13.70;99.90;;;;;;5076291;28;20245;-59
2023/06/05 06:35:40;;;;;;;9.20;6.20;;;13.90;99.90;;;;;;5074066;28;20237;-59
2023/06/05 06:38:07;;;;;;;9.47;7.00;;;13.80;99.90;;;;;;5066767;28;20207;-59
2023/06/05 06:40:35;;;;;;;7.80;5.77;;;13.80;99.90;;;;;;5078617;28;20308;-58
2023/06/05 06:43:02;;;;;;;10.30;6.87;;;13.60;99.90;;;;;;5044205;28;20298;-59
2023/06/05 06:45:28;;;;;;;10.97;6.13;;;13.70;99.90;;;;;;5063155;28;20308;-58
2023/06/05 06:47:55;;;;;;;10.10;6.67;;;14.00;99.90;;;;;;5081835;28;20198;-59
2023/06/05 06:50:34;;;;;;;16.90;6.83;;;13.90;99.90;;;;;;5083031;28;20997;-59
2023/06/05 06:53:01;;;;;;;10.87;6.47;;;14.00;99.90;;;;;;5071382;28;20291;-58
2023/06/05 06:55:28;;;;;;;8.70;7.13;;;13.90;99.90;;;;;;5075381;28;20284;-58
2023/06/05 06:57:55;;;;;;;8.47;6.43;;;14.30;99.90;;;;;;5084291;28;20195;-59
2023/06/05 07:00:23;;;;;;;8.90;6.57;;;14.40;99.90;;;;;;5081392;28;20200;-59
2023/06/05 07:02:50;;;;;;;12.03;6.40;;;14.70;99.90;;;;;;5081017;28;20228;-59
2023/06/05 07:05:20;;;;;;;12.17;6.17;;;15.00;99.90;;;;;;5088130;28;20321;-59
2023/06/05 07:07:47;;;;;;;8.47;6.57;;;14.80;99.90;;;;;;5082495;28;20295;-59
2023/06/05 07:10:14;;;;;;;12.43;6.07;;;14.90;99.90;;;;;;5076595;28;20215;-58
2023/06/05 07:12:41;;;;;;;11.97;6.60;;;14.90;99.90;;;;;;5083133;28;20535;-59
2023/06/05 07:15:08;;;;;;;8.53;5.73;;;15.10;99.90;;;;;;5079307;28;20216;-59
2023/06/05 07:17:35;;;;;;;8.80;6.10;;;15.00;99.90;;;;;;5085562;28;20258;-59
2023/06/05 07:20:05;;;;;;;7.90;4.93;;;15.10;99.90;;;;;;5088683;28;20265;-58
2023/06/05 07:22:32;;;;;;;9.83;6.50;;;15.20;99.90;;;;;;5083736;28;20301;-59
2023/06/05 07:25:00;;;;;;;8.20;5.47;;;15.20;99.90;;;;;;5081208;28;20232;-59
2023/06/05 07:27:28;;;;;;;9.10;6.37;;;15.30;99.90;;;;;;5084989;28;20215;-59
2023/06/05 07:29:56;;;;;;;8.57;5.77;;;15.40;99.90;;;;;;5065675;28;20787;-59
2023/06/05 07:32:23;;;;;;;7.23;5.47;;;15.50;99.90;;;;;;5086036;28;20604;-58
2023/06/05 07:34:51;;;;;;;8.80;5.70;;;15.50;99.90;;;;;;5081426;28;20227;-59
2023/06/05 07:37:18;;;;;;;7.93;5.33;;;15.90;99.90;;;;;;5084448;28;20212;-59
2023/06/05 07:39:46;;;;;;;9.30;5.90;;;15.80;99.90;;;;;;5082632;28;20595;-59
2023/06/05 07:42:13;;;;;;;10.03;6.37;;;15.70;99.90;;;;;;5078585;28;20619;-60
2023/06/05 07:44:42;;;;;;;8.33;5.93;;;15.60;99.90;;;;;;5076662;28;20218;-60
2023/06/05 07:47:09;;;;;;;9.07;6.03;;;15.80;99.90;;;;;;5082555;28;20580;-59
2023/06/05 07:49:36;;;;;;;9.60;5.73;;;16.10;99.90;;;;;;5066607;28;20204;-59
2023/06/05 07:52:03;;;;;;;6.77;5.80;;;16.20;99.90;;;;;;5073555;28;20209;-59
2023/06/05 07:54:30;;;;;;;8.23;5.23;;;16.30;99.90;;;;;;5078491;28;20293;-59
2023/06/05 07:56:58;;;;;;;10.27;5.67;;;16.40;99.90;;;;;;5074155;28;20205;-59
2023/06/05 07:59:27;;;;;;;9.87;5.90;;;17.00;99.90;;;;;;5079376;28;20222;-59
2023/06/05 08:02:01;;;;;;;9.30;5.40;;;16.80;99.90;;;;;;5051011;28;21338;-60
2023/06/05 08:04:28;;;;;;;8.00;5.47;;;17.00;99.90;;;;;;5083577;28;20697;-60
2023/06/05 08:06:55;;;;;;;8.63;5.20;;;16.80;99.90;;;;;;5065197;28;20309;-59
2023/06/05 08:09:22;;;;;;;9.23;5.83;;;16.50;99.90;;;;;;5068745;28;20224;-59
2023/06/05 08:11:49;;;;;;;7.67;5.50;;;16.80;99.90;;;;;;5066835;28;20608;-59
2023/06/05 08:14:16;;;;;;;9.57;6.03;;;17.10;99.90;;;;;;5084775;28;20598;-59
2023/06/05 08:16:43;;;;;;;9.30;5.77;;;16.90;99.90;;;;;;5085974;28;20206;-59
2023/06/05 08:19:10;;;;;;;9.40;5.50;;;17.10;99.90;;;;;;5067453;28;20666;-62
2023/06/05 08:21:37;;;;;;;8.53;5.20;;;16.90;99.90;;;;;;5087327;28;20225;-60
2023/06/05 08:24:04;;;;;;;9.63;5.30;;;17.50;99.90;;;;;;5077157;28;20222;-59
2023/06/05 08:26:31;;;;;;;7.37;5.47;;;17.40;99.90;;;;;;5077104;28;20278;-59
2023/06/05 08:29:00;;;;;;;9.43;4.90;;;17.90;99.90;;;;;;5073308;28;20253;-59
2023/06/05 08:31:26;;;;;;;6.97;4.93;;;18.20;99.90;;;;;;5080550;28;20211;-59
2023/06/05 08:33:53;;;;;;;15.30;5.97;;;18.00;99.90;;;;;;5077306;28;20231;-59
2023/06/05 08:36:21;;;;;;;7.40;5.10;;;17.70;99.90;;;;;;5080205;28;20618;-58
2023/06/05 08:38:47;;;;;;;8.63;5.10;;;18.00;99.90;;;;;;5075461;28;20202;-58
2023/06/05 08:41:16;;;;;;;6.57;5.10;;;18.20;99.90;;;;;;5078830;28;20656;-58
2023/06/05 08:43:47;;;;;;;6.43;4.57;;;18.80;99.90;;;;;;5080009;28;20206;-58
2023/06/05 08:46:15;;;;;;;6.27;4.80;;;18.10;99.90;;;;;;5083716;28;20704;-58
2023/06/05 08:48:44;;;;;;;10.60;4.83;;;18.00;99.90;;;;;;5079087;28;20200;-58
2023/06/05 08:51:16;;;;;;;7.80;5.90;;;18.30;99.90;;;;;;5079842;28;20646;-59
2023/06/05 08:53:51;;;;;;;9.60;5.10;;;18.30;99.90;;;;;;5079492;28;20535;-64
2023/06/05 08:56:18;;;;;;;7.03;5.00;;;18.20;99.90;;;;;;5085083;28;20208;-62
2023/06/05 08:58:48;;;;;;;12.30;6.07;;;18.30;99.90;;;;;;5081600;28;20200;-58
2023/06/05 09:01:16;;;;;;;9.60;4.93;;;18.20;99.90;;;;;;5077749;28;20545;-58
2023/06/05 09:03:44;;;;;;;8.57;5.90;;;18.90;99.90;;;;;;5075854;28;20255;-58
2023/06/05 09:06:11;;;;;;;6.50;5.07;;;18.50;99.90;;;;;;5074060;28;20301;-58
2023/06/05 09:08:38;;;;;;;6.10;4.77;;;18.20;99.90;;;;;;5076559;28;20359;-58
2023/06/05 09:11:23;;;;;;;6.20;5.30;;;18.60;99.90;;;;;;5075486;28;20781;-58
2023/06/05 09:13:52;;;;;;;7.47;5.17;;;19.10;99.90;;;;;;5077876;28;20332;-58
2023/06/05 09:16:31;;;;;;;9.57;6.63;;;19.00;99.90;;;;;;5077308;28;20206;-58
2023/06/05 09:18:58;;;;;;;11.53;4.90;;;19.10;99.90;;;;;;5077547;28;20206;-58
2023/06/05 09:21:30;;;;;;;6.57;5.17;;;19.20;99.90;;;;;;5073978;28;20247;-59
2023/06/05 09:24:17;;;;;;;8.87;5.40;;;19.50;99.90;;;;;;5074968;28;20217;-58
2023/06/05 09:26:53;;;;;;;6.63;5.30;;;19.80;99.90;;;;;;5075949;28;20202;-58
2023/06/05 09:29:31;;;;;;;8.47;5.40;;;19.30;99.90;;;;;;5078859;28;20244;-58
2023/06/05 09:32:09;;;;;;;10.27;5.93;;;19.00;99.90;;;;;;5053459;28;20206;-58
2023/06/05 09:34:38;;;;;;;7.10;5.20;;;19.00;99.90;;;;;;5072923;28;20205;-58
2023/06/05 09:37:09;;;;;;;7.73;5.60;;;19.00;99.90;;;;;;5082715;28;20551;-59
2023/06/05 09:39:43;;;;;;;7.60;5.43;;;19.00;99.90;;;;;;5063036;28;20202;-58
2023/06/05 09:42:10;;;;;;;6.97;5.53;;;19.30;99.90;;;;;;5048351;28;20214;-58
2023/06/05 09:44:37;;;;;;;8.50;6.00;;;19.90;99.90;;;;;;5078219;28;20272;-58
2023/06/05 09:47:09;;;;;;;8.03;4.97;;;19.50;99.90;;;;;;5081751;28;20194;-58
2023/06/05 09:49:40;;;;;;;9.87;5.40;;;19.90;99.90;;;;;;5073189;28;20203;-58
2023/06/05 09:52:09;;;;;;;10.67;5.57;;;19.70;99.90;;;;;;5080145;28;20199;-58
2023/06/05 09:54:38;;;;;;;11.00;6.10;;;20.20;99.90;;;;;;5079263;28;20213;-58
2023/06/05 09:57:09;;;;;;;5.87;5.27;;;19.50;99.90;;;;;;5076475;28;20229;-58
2023/06/05 09:59:51;;;;;;;9.73;5.20;;;19.70;99.90;;;;;;5070629;28;20285;-58
2023/06/05 10:02:20;;;;;;;8.47;5.20;;;19.80;99.90;;;;;;5074759;28;20206;-58
2023/06/05 10:04:56;;;;;;;8.30;5.70;;;19.70;99.90;;;;;;5079645;28;20310;-58
2023/06/05 10:07:24;;;;;;;5.83;4.50;;;19.60;99.90;;;;;;5079071;28;20837;-58
2023/06/05 10:09:51;;;;;;;7.03;5.10;;;19.90;99.90;;;;;;5075067;28;20221;-58
2023/06/05 10:12:19;;;;;;;7.40;5.17;;;19.80;99.90;;;;;;5076019;28;20225;-58
2023/06/05 10:14:48;;;;;;;6.50;4.60;;;19.80;99.90;;;;;;5068389;28;20543;-58
2023/06/05 10:17:15;;;;;;;5.03;4.53;;;20.00;99.90;;;;;;5059674;28;20202;-58
2023/06/05 10:19:43;;;;;;;8.07;5.30;;;20.80;99.90;;;;;;5077067;28;20202;-58
2023/06/05 10:22:11;;;;;;;6.10;5.07;;;20.60;99.90;;;;;;5058399;28;20202;-58
2023/06/05 10:24:47;;;;;;;6.50;4.83;;;20.40;99.90;;;;;;5079325;28;20226;-59
2023/06/05 10:27:26;;;;;;;9.27;5.57;;;20.40;99.90;;;;;;5079746;28;20266;-59
2023/06/05 10:30:08;;;;;;;7.63;5.73;;;20.50;99.90;;;;;;5074723;28;20615;-58
2023/06/05 10:33:09;;;;;;;8.50;4.93;;;20.40;99.90;;;;;;5081765;28;20218;-58
2023/06/05 10:35:48;;;;;;;5.90;5.00;;;21.10;99.90;;;;;;5078279;28;21308;-58
2023/06/05 10:38:22;;;;;;;8.20;4.57;;;20.70;99.90;;;;;;5079515;28;20213;-58
2023/06/05 10:40:53;;;;;;;7.30;4.93;;;20.60;99.90;;;;;;5079304;28;20961;-58
2023/06/05 10:43:24;;;;;;;7.50;5.03;;;21.20;99.90;;;;;;5080398;28;20198;-58
2023/06/05 10:45:51;;;;;;;6.80;5.57;;;21.20;99.90;;;;;;5073276;28;20222;-58
2023/06/05 10:49:12;;;;;;;8.80;5.30;;;20.90;99.90;;;;;;5082837;28;20202;-59
2023/06/05 10:51:47;;;;;;;6.93;4.40;;;20.90;99.90;;;;;;5081936;28;20199;-58
2023/06/05 10:54:23;;;;;;;6.50;4.90;;;21.50;99.90;;;;;;5082537;28;20977;-58
2023/06/05 10:56:56;;;;;;;5.03;4.53;;;21.30;99.90;;;;;;5083707;28;20312;-58
2023/06/05 10:59:28;;;;;;;5.37;4.50;;;21.30;99.90;;;;;;5074914;28;20202;-58
2023/06/05 11:02:16;;;;;;;6.67;5.03;;;21.70;99.90;;;;;;5076950;28;20195;-58
2023/06/05 11:04:47;;;;;;;9.10;4.87;;;21.70;99.90;;;;;;5080347;28;20223;-58
2023/06/05 11:07:22;;;;;;;7.50;4.90;;;21.90;99.90;;;;;;5086858;28;20203;-58
2023/06/05 11:10:07;;;;;;;6.53;5.57;;;21.50;99.90;;;;;;5088123;28;20211;-58
2023/06/05 11:12:40;;;;;;;5.90;4.97;;;21.70;99.90;;;;;;5086533;28;20202;-58
2023/06/05 11:15:09;;;;;;;7.53;4.33;;;22.10;99.90;;;;;;5082170;28;20647;-58
2023/06/05 11:17:41;;;;;;;6.37;4.90;;;22.60;99.90;;;;;;5084619;28;20199;-58
2023/06/05 11:20:28;;;;;;;7.97;4.97;;;22.40;99.90;;;;;;5084292;28;20211;-58
2023/06/05 11:22:58;;;;;;;6.83;4.63;;;22.80;99.90;;;;;;5084346;28;20219;-58
2023/06/05 11:25:30;;;;;;;7.10;4.60;;;23.20;99.90;;;;;;5084546;28;20577;-58
2023/06/05 11:27:59;;;;;;;7.40;4.57;;;23.30;99.90;;;;;;5067985;28;20204;-60
2023/06/05 11:30:31;;;;;;;8.40;5.60;;;23.30;99.90;;;;;;5061531;28;21215;-59
2023/06/05 11:33:17;;;;;;;7.53;4.77;;;23.20;99.90;;;;;;5084010;28;20656;-60
2023/06/05 11:35:47;;;;;;;4.83;4.27;;;22.80;99.90;;;;;;5067648;28;20275;-59
2023/06/05 11:38:18;;;;;;;5.60;4.73;;;23.80;99.90;;;;;;5086194;28;20203;-59
2023/06/05 11:40:49;;;;;;;7.10;4.93;;;23.50;99.90;;;;;;5083627;28;20211;-58
2023/06/05 11:43:17;;;;;;;6.50;4.73;;;23.20;99.90;;;;;;5066334;28;20202;-58
2023/06/05 11:45:56;;;;;;;8.33;4.73;;;23.10;99.90;;;;;;5083019;28;20700;-58
2023/06/05 11:48:24;;;;;;;5.27;4.70;;;23.40;99.90;;;;;;5084977;28;20226;-58
2023/06/05 11:51:02;;;;;;;6.50;5.50;;;23.50;99.90;;;;;;5084878;28;20244;-57
2023/06/05 11:53:31;;;;;;;5.87;5.27;;;24.00;99.90;;;;;;5081529;28;20571;-58
2023/06/05 11:56:06;;;;;;;6.10;5.03;;;24.00;99.90;;;;;;5078907;28;20255;-60
2023/06/05 11:58:38;;;;;;;8.00;5.37;;;23.80;99.90;;;;;;5079608;28;20649;-58
2023/06/05 12:01:14;;;;;;;10.70;5.30;;;23.70;99.90;;;;;;5080022;28;20234;-58
2023/06/05 12:03:42;;;;;;;6.13;5.00;;;23.40;99.90;;;;;;5082369;28;20328;-58
2023/06/05 12:06:11;;;;;;;6.40;5.27;;;23.30;99.90;;;;;;5080968;28;20216;-58
2023/06/05 12:08:40;;;;;;;7.10;5.37;;;23.40;99.90;;;;;;5079823;28;20198;-59
2023/06/05 12:11:33;;;;;;;5.93;5.00;;;23.50;99.90;;;;;;5080855;28;20323;-59
2023/06/05 12:14:00;;;;;;;7.20;4.77;;;24.00;99.90;;;;;;5078558;28;20974;-58
2023/06/05 12:16:35;;;;;;;8.20;5.70;;;23.90;99.90;;;;;;5060245;28;20200;-58
2023/06/05 12:19:14;;;;;;;6.73;5.07;;;23.70;99.90;;;;;;5085022;28;20217;-58
2023/06/05 12:21:44;;;;;;;6.37;5.63;;;23.50;99.90;;;;;;5083260;28;20206;-58
2023/06/05 12:24:11;;;;;;;8.43;5.80;;;23.70;99.90;;;;;;5079727;28;21146;-58
2023/06/05 12:26:59;;;;;;;6.50;5.83;;;23.50;99.90;;;;;;5081526;28;20230;-58
2023/06/05 12:29:28;;;;;;;6.80;5.17;;;22.90;99.90;;;;;;5077487;28;20972;-58
2023/06/05 12:32:00;;;;;;;6.70;4.23;;;23.10;99.90;;;;;;5077786;28;20204;-58
2023/06/05 12:34:40;;;;;;;7.43;5.07;;;23.50;99.90;;;;;;5076423;28;20230;-58
2023/06/05 12:37:12;;;;;;;6.33;5.40;;;23.70;99.90;;;;;;5057812;28;20213;-58
2023/06/05 12:39:39;;;;;;;5.67;4.80;;;23.80;99.90;;;;;;5073636;28;20206;-58
2023/06/05 12:42:07;;;;;;;4.70;4.30;;;24.60;99.90;;;;;;5075291;28;20213;-58
2023/06/05 12:44:33;;;;;;;6.67;5.20;;;24.10;99.90;;;;;;5057974;28;20210;-60
2023/06/05 12:47:00;;;;;;;5.17;4.53;;;24.30;99.90;;;;;;5064980;28;20652;-58
2023/06/05 12:49:27;;;;;;;6.57;5.73;;;23.90;99.90;;;;;;5073967;28;20213;-58
2023/06/05 12:51:55;;;;;;;6.07;4.67;;;23.40;99.90;;;;;;5076516;28;20653;-57
2023/06/05 12:54:22;;;;;;;5.80;5.00;;;23.60;99.90;;;;;;5075694;28;20210;-57
2023/06/05 12:56:49;;;;;;;4.70;4.20;;;24.20;99.90;;;;;;5048909;28;20197;-58
2023/06/05 12:59:16;;;;;;;6.70;4.77;;;24.20;99.90;;;;;;5079670;28;20659;-58